Time;durP1;ratioP1;P1;durP2;ratioP2;P2;SDS_P1;SDS_P2;PMS_P1;PMS_P2;Temp;Humidity;BMP_temperature;BMP_pressure;BME280_temperature;BME280_humidity;BME280_pressure;Samples;Min_cycle;Max_cycle;Signal;HPM_P1;HPM_P2
2023/08/14 00:00:26;;;;;;;4.13;3.75;;;;;;;;;;5062304;28;20458;-66
2023/08/14 00:02:52;;;;;;;7.40;3.95;;;;;;;;;;5062353;28;20396;-66
2023/08/14 00:05:18;;;;;;;4.38;3.58;;;;;;;;;;5062155;28;20200;-66
2023/08/14 00:07:44;;;;;;;5.45;3.70;;;;;;;;;;5062025;28;20207;-66
2023/08/14 00:10:11;;;;;;;8.45;3.58;;;;;;;;;;5062281;28;20205;-66
2023/08/14 00:12:37;;;;;;;7.00;3.60;;;;;;;;;;5062043;28;20220;-66
2023/08/14 00:15:05;;;;;;;5.63;3.90;;;;;;;;;;5061936;28;20204;-66
2023/08/14 00:17:31;;;;;;;3.63;3.40;;;;;;;;;;5062121;28;20207;-66
2023/08/14 00:19:57;;;;;;;7.88;3.95;;;;;;;;;;5062175;28;20201;-66
2023/08/14 00:22:24;;;;;;;6.35;3.78;;;;;;;;;;5061979;28;20538;-66
2023/08/14 00:24:50;;;;;;;8.82;3.97;;;;;;;;;;5062221;28;20496;-66
2023/08/14 00:27:16;;;;;;;4.18;3.80;;;;;;;;;;5062031;28;20419;-66
2023/08/14 00:29:42;;;;;;;5.57;3.67;;;;;;;;;;5062050;28;20207;-66
2023/08/14 00:32:10;;;;;;;4.32;3.83;;;;;;;;;;5061948;28;20232;-66
2023/08/14 00:34:36;;;;;;;8.88;3.88;;;;;;;;;;5062159;28;20200;-66
2023/08/14 00:37:03;;;;;;;5.38;4.03;;;;;;;;;;5061645;28;20526;-66
2023/08/14 00:39:29;;;;;;;10.88;3.50;;;;;;;;;;5062231;28;20209;-66
2023/08/14 00:41:55;;;;;;;7.72;4.05;;;;;;;;;;5061970;28;20215;-66
2023/08/14 00:44:21;;;;;;;4.72;4.15;;;;;;;;;;5061910;28;20212;-66
2023/08/14 00:46:48;;;;;;;6.07;4.00;;;;;;;;;;5061271;28;20208;-66
2023/08/14 00:49:15;;;;;;;4.25;3.95;;;;;;;;;;5061718;28;20201;-66
2023/08/14 00:51:42;;;;;;;9.30;4.30;;;;;;;;;;5061530;28;20201;-66
2023/08/14 00:54:08;;;;;;;4.88;3.88;;;;;;;;;;5061920;28;20227;-66
2023/08/14 00:56:34;;;;;;;6.25;3.70;;;;;;;;;;5061774;28;20508;-66
2023/08/14 00:59:01;;;;;;;3.88;3.47;;;;;;;;;;5061737;28;20201;-66
2023/08/14 01:01:27;;;;;;;6.65;4.03;;;;;;;;;;5061604;28;20200;-66
2023/08/14 01:03:54;;;;;;;4.47;3.58;;;;;;;;;;5061896;28;20196;-66
2023/08/14 01:06:21;;;;;;;4.22;3.53;;;;;;;;;;5061853;28;20209;-66
2023/08/14 01:08:48;;;;;;;6.07;3.95;;;;;;;;;;5061557;28;20208;-66
2023/08/14 01:11:18;;;;;;;4.30;3.90;;;;;;;;;;5061653;28;20223;-66
2023/08/14 01:13:49;;;;;;;3.63;3.42;;;;;;;;;;5061265;28;20223;-66
2023/08/14 01:16:18;;;;;;;4.53;3.75;;;;;;;;;;5061393;28;20208;-66
2023/08/14 01:18:46;;;;;;;5.10;3.40;;;;;;;;;;5061760;28;20530;-66
2023/08/14 01:21:22;;;;;;;3.97;3.65;;;;;;;;;;5061527;28;20406;-66
2023/08/14 01:23:57;;;;;;;4.43;3.90;;;;;;;;;;5061324;28;20207;-66
2023/08/14 01:26:25;;;;;;;7.57;4.05;;;;;;;;;;5061114;28;20204;-66
2023/08/14 01:28:51;;;;;;;3.90;3.70;;;;;;;;;;5061387;28;20216;-66
2023/08/14 01:31:17;;;;;;;11.95;4.25;;;;;;;;;;5061530;28;20512;-66
2023/08/14 01:33:44;;;;;;;7.25;4.40;;;;;;;;;;5061186;28;20220;-66
2023/08/14 01:36:13;;;;;;;7.30;4.20;;;;;;;;;;5061237;28;20265;-66
2023/08/14 01:38:45;;;;;;;9.35;4.00;;;;;;;;;;5061295;28;20275;-66
2023/08/14 01:41:16;;;;;;;7.75;4.82;;;;;;;;;;5061338;28;20215;-66
2023/08/14 01:43:46;;;;;;;6.07;5.18;;;;;;;;;;5061342;28;20570;-66
2023/08/14 01:46:13;;;;;;;8.05;5.90;;;;;;;;;;5061257;28;20201;-66
2023/08/14 01:48:39;;;;;;;6.15;5.60;;;;;;;;;;5060994;28;20205;-66
2023/08/14 01:51:05;;;;;;;10.93;6.57;;;;;;;;;;5061190;28;20207;-66
2023/08/14 01:53:33;;;;;;;7.22;6.45;;;;;;;;;;5061290;28;20225;-66
2023/08/14 01:55:59;;;;;;;6.95;6.22;;;;;;;;;;5061173;28;20516;-66
2023/08/14 01:58:26;;;;;;;5.93;4.55;;;;;;;;;;5062636;28;20224;-66
2023/08/14 02:00:53;;;;;;;2.90;2.70;;;;;;;;;;5064670;28;20404;-66
2023/08/14 02:03:20;;;;;;;6.82;2.22;;;;;;;;;;5064670;28;20501;-66
2023/08/14 02:05:46;;;;;;;8.80;2.50;;;;;;;;;;5064309;28;20205;-66
2023/08/14 02:08:12;;;;;;;5.40;2.05;;;;;;;;;;5064760;28;20213;-66
2023/08/14 02:10:46;;;;;;;3.30;1.60;;;;;;;;;;5064714;28;20208;-65
2023/08/14 02:13:12;;;;;;;4.30;1.90;;;;;;;;;;5064092;28;20225;-65
2023/08/14 02:15:38;;;;;;;3.45;2.15;;;;;;;;;;5064438;28;20301;-65
2023/08/14 02:18:06;;;;;;;5.28;1.80;;;;;;;;;;5064528;28;20193;-65
2023/08/14 02:20:32;;;;;;;3.85;1.92;;;;;;;;;;5064477;28;20204;-66
2023/08/14 02:22:59;;;;;;;3.38;1.58;;;;;;;;;;5056282;28;20193;-66
2023/08/14 02:25:25;;;;;;;4.75;2.00;;;;;;;;;;5064061;28;20270;-66
2023/08/14 02:27:51;;;;;;;3.83;2.13;;;;;;;;;;5064085;28;20217;-66
2023/08/14 02:30:18;;;;;;;4.60;2.58;;;;;;;;;;5064351;28;20211;-66
2023/08/14 02:32:44;;;;;;;6.15;2.30;;;;;;;;;;5063904;28;20235;-66
2023/08/14 02:35:11;;;;;;;8.88;3.00;;;;;;;;;;5063982;28;20215;-66
2023/08/14 02:37:38;;;;;;;5.70;2.65;;;;;;;;;;5063960;28;20197;-66
2023/08/14 02:40:04;;;;;;;9.00;2.58;;;;;;;;;;5063940;28;20197;-66
2023/08/14 02:42:31;;;;;;;6.53;2.60;;;;;;;;;;5064126;28;20212;-66
2023/08/14 02:44:57;;;;;;;3.25;2.95;;;;;;;;;;5063819;28;20205;-66
2023/08/14 02:47:23;;;;;;;4.25;3.20;;;;;;;;;;5063527;28;20201;-66
2023/08/14 02:49:51;;;;;;;4.97;3.03;;;;;;;;;;5063661;28;20224;-66
2023/08/14 02:52:18;;;;;;;12.80;3.17;;;;;;;;;;5063701;28;20207;-66
2023/08/14 02:54:44;;;;;;;5.07;3.40;;;;;;;;;;5063361;28;20213;-66
2023/08/14 02:57:11;;;;;;;6.60;2.83;;;;;;;;;;5063736;28;20395;-66
2023/08/14 02:59:37;;;;;;;5.45;3.25;;;;;;;;;;5063702;28;20203;-66
2023/08/14 03:02:03;;;;;;;5.00;3.03;;;;;;;;;;5063386;28;20272;-66
2023/08/14 03:04:30;;;;;;;3.63;3.28;;;;;;;;;;5063504;28;20193;-66
2023/08/14 03:06:57;;;;;;;3.50;3.20;;;;;;;;;;5063004;28;20511;-66
2023/08/14 03:09:24;;;;;;;4.57;3.60;;;;;;;;;;5063129;28;20243;-66
2023/08/14 03:11:50;;;;;;;4.13;3.55;;;;;;;;;;5063133;28;20527;-66
2023/08/14 03:14:17;;;;;;;6.10;3.63;;;;;;;;;;5063287;28;20416;-66
2023/08/14 03:16:43;;;;;;;3.38;3.17;;;;;;;;;;5062847;28;20209;-66
2023/08/14 03:19:09;;;;;;;4.75;3.38;;;;;;;;;;5063161;28;20427;-66
2023/08/14 03:21:36;;;;;;;3.47;3.17;;;;;;;;;;5063018;28;20197;-66
2023/08/14 03:24:02;;;;;;;7.03;3.70;;;;;;;;;;5054999;28;20492;-66
2023/08/14 03:26:30;;;;;;;4.55;3.55;;;;;;;;;;5062786;28;20256;-66
2023/08/14 03:28:56;;;;;;;3.70;3.40;;;;;;;;;;5062800;28;20574;-66
2023/08/14 03:31:23;;;;;;;6.03;3.85;;;;;;;;;;5063055;28;20420;-66
2023/08/14 03:33:49;;;;;;;4.75;4.05;;;;;;;;;;5062837;28;20239;-66
2023/08/14 03:36:16;;;;;;;6.30;3.88;;;;;;;;;;5062648;28;20197;-66
2023/08/14 03:38:42;;;;;;;5.32;3.70;;;;;;;;;;5062812;28;20288;-66
2023/08/14 03:41:08;;;;;;;5.22;3.38;;;;;;;;;;5062762;28;20197;-66
2023/08/14 03:43:36;;;;;;;5.28;3.83;;;;;;;;;;5062762;28;20193;-66
2023/08/14 03:46:02;;;;;;;5.90;3.70;;;;;;;;;;5062592;28;20231;-66
2023/08/14 03:48:28;;;;;;;5.43;3.53;;;;;;;;;;5062437;28;20205;-66
2023/08/14 03:50:55;;;;;;;4.25;3.88;;;;;;;;;;5062239;28;20526;-66
2023/08/14 03:53:21;;;;;;;4.85;3.95;;;;;;;;;;5062622;28;20449;-66
2023/08/14 03:55:47;;;;;;;6.07;3.53;;;;;;;;;;5062393;28;20197;-66
2023/08/14 03:58:13;;;;;;;4.22;3.42;;;;;;;;;;5062461;28;20468;-66
2023/08/14 04:00:41;;;;;;;5.80;3.70;;;;;;;;;;5062145;28;20239;-66
2023/08/14 04:03:07;;;;;;;4.43;3.50;;;;;;;;;;5062304;28;20228;-66
2023/08/14 04:05:36;;;;;;;7.25;4.05;;;;;;;;;;5061963;28;20529;-66
2023/08/14 04:08:03;;;;;;;3.50;3.22;;;;;;;;;;5061787;28;20500;-66
2023/08/14 04:10:29;;;;;;;4.50;3.55;;;;;;;;;;5051129;28;20205;-66
2023/08/14 04:12:56;;;;;;;8.23;4.20;;;;;;;;;;5056158;28;20223;-66
2023/08/14 04:15:22;;;;;;;3.80;3.50;;;;;;;;;;5056076;28;20310;-66
2023/08/14 04:17:50;;;;;;;4.70;3.80;;;;;;;;;;5056962;28;20411;-59
2023/08/14 04:20:16;;;;;;;3.80;3.50;;;;;;;;;;5053878;28;20209;-59
2023/08/14 04:22:42;;;;;;;3.88;3.50;;;;;;;;;;5053710;28;20208;-58
2023/08/14 04:25:09;;;;;;;4.13;3.00;;;;;;;;;;5054308;28;20547;-59
2023/08/14 04:27:36;;;;;;;3.00;2.90;;;;;;;;;;5054109;28;20445;-59
2023/08/14 04:30:02;;;;;;;4.30;2.95;;;;;;;;;;5054220;28;20201;-59
2023/08/14 04:32:29;;;;;;;6.20;3.50;;;;;;;;;;5053893;28;20204;-59
2023/08/14 04:34:56;;;;;;;3.72;3.47;;;;;;;;;;5055781;28;20225;-59
2023/08/14 04:37:23;;;;;;;3.35;3.17;;;;;;;;;;5056488;28;20215;-58
2023/08/14 04:39:49;;;;;;;3.58;2.95;;;;;;;;;;5056523;28;20287;-59
2023/08/14 04:42:15;;;;;;;3.10;2.90;;;;;;;;;;5056948;28;20436;-59
2023/08/14 04:44:41;;;;;;;3.42;2.55;;;;;;;;;;5056580;28;20212;-59
2023/08/14 04:47:08;;;;;;;2.97;2.88;;;;;;;;;;5056549;28;20212;-59
2023/08/14 04:49:34;;;;;;;5.28;2.80;;;;;;;;;;5057122;28;20197;-59
2023/08/14 04:52:02;;;;;;;3.78;2.90;;;;;;;;;;5056668;28;20220;-59
2023/08/14 04:54:28;;;;;;;3.13;2.80;;;;;;;;;;5056319;28;20209;-58
2023/08/14 04:56:54;;;;;;;3.72;3.40;;;;;;;;;;5056250;28;20417;-58
2023/08/14 04:59:21;;;;;;;5.40;3.20;;;;;;;;;;5050815;28;20216;-58
2023/08/14 05:01:47;;;;;;;7.13;3.22;;;;;;;;;;5043704;28;20324;-59
2023/08/14 05:04:13;;;;;;;3.22;3.03;;;;;;;;;;5049225;28;20205;-59
2023/08/14 05:06:39;;;;;;;3.30;3.10;;;;;;;;;;5052464;28;20217;-59
2023/08/14 05:09:07;;;;;;;3.85;3.60;;;;;;;;;;5050024;28;20376;-58
2023/08/14 05:11:33;;;;;;;4.38;3.20;;;;;;;;;;5049169;28;20209;-58
2023/08/14 05:13:59;;;;;;;3.50;3.30;;;;;;;;;;5053775;28;20229;-59
2023/08/14 05:16:25;;;;;;;5.65;3.25;;;;;;;;;;5052487;28;20287;-59
2023/08/14 05:18:51;;;;;;;4.10;3.15;;;;;;;;;;5052805;28;20521;-58
2023/08/14 05:21:17;;;;;;;4.88;3.20;;;;;;;;;;5046707;28;20209;-59
2023/08/14 05:23:44;;;;;;;5.22;3.65;;;;;;;;;;5053395;28;20197;-58
2023/08/14 05:26:11;;;;;;;8.90;3.35;;;;;;;;;;5053456;28;20209;-58
2023/08/14 05:28:38;;;;;;;3.38;3.00;;;;;;;;;;5052275;28;20544;-58
2023/08/14 05:31:07;;;;;;;3.30;2.90;;;;;;;;;;5051318;28;20220;-59
2023/08/14 05:33:33;;;;;;;3.55;3.35;;;;;;;;;;5055068;28;20232;-59
2023/08/14 05:35:59;;;;;;;3.60;3.30;;;;;;;;;;5057134;28;20533;-59
2023/08/14 05:38:26;;;;;;;4.60;4.22;;;;;;;;;;5056078;28;20215;-58
2023/08/14 05:40:52;;;;;;;5.28;4.70;;;;;;;;;;5057451;28;20213;-58
2023/08/14 05:43:19;;;;;;;6.85;4.95;;;;;;;;;;5057181;28;20213;-59
2023/08/14 05:45:46;;;;;;;8.05;4.63;;;;;;;;;;5048590;28;20217;-58
2023/08/14 05:48:13;;;;;;;4.88;4.05;;;;;;;;;;5057039;28;20524;-58
2023/08/14 05:50:40;;;;;;;6.50;5.03;;;;;;;;;;5057421;28;20209;-59
2023/08/14 05:53:07;;;;;;;5.72;5.00;;;;;;;;;;5056868;28;20212;-59
2023/08/14 05:55:34;;;;;;;4.85;4.50;;;;;;;;;;5045165;28;20245;-58
2023/08/14 05:58:02;;;;;;;9.45;5.50;;;;;;;;;;5046369;28;20213;-58
2023/08/14 06:00:30;;;;;;;5.25;4.75;;;;;;;;;;5051883;28;20209;-58
2023/08/14 06:02:56;;;;;;;7.93;5.25;;;;;;;;;;5054914;28;20213;-58
2023/08/14 06:05:23;;;;;;;4.63;4.32;;;;;;;;;;5051390;28;20229;-59
2023/08/14 06:07:50;;;;;;;5.70;4.70;;;;;;;;;;5053985;28;20543;-60
2023/08/14 06:10:16;;;;;;;5.43;4.93;;;;;;;;;;5056954;28;20209;-58
2023/08/14 06:12:44;;;;;;;8.00;5.60;;;;;;;;;;5039398;28;20210;-58
2023/08/14 06:15:11;;;;;;;9.32;5.43;;;;;;;;;;5057969;28;20288;-59
2023/08/14 06:17:39;;;;;;;6.57;4.80;;;;;;;;;;5058720;28;20209;-58
2023/08/14 06:20:06;;;;;;;6.18;4.75;;;;;;;;;;5044787;28;20529;-58
2023/08/14 06:22:32;;;;;;;6.97;4.90;;;;;;;;;;5047344;28;20493;-58
2023/08/14 06:24:59;;;;;;;7.78;5.30;;;;;;;;;;5050104;28;20421;-58
2023/08/14 06:27:25;;;;;;;6.05;5.38;;;;;;;;;;5051387;28;20221;-58
2023/08/14 06:29:51;;;;;;;5.53;4.97;;;;;;;;;;5051513;28;20528;-58
2023/08/14 06:32:17;;;;;;;12.45;6.68;;;;;;;;;;5058999;28;20215;-59
2023/08/14 06:34:46;;;;;;;8.13;5.47;;;;;;;;;;5058649;28;20225;-58
2023/08/14 06:37:12;;;;;;;8.07;6.28;;;;;;;;;;5054815;28;20216;-59
2023/08/14 06:39:38;;;;;;;6.38;5.63;;;;;;;;;;5053716;28;20212;-58
2023/08/14 06:42:05;;;;;;;7.22;6.35;;;;;;;;;;5054671;28;20217;-59
2023/08/14 06:44:31;;;;;;;7.88;5.57;;;;;;;;;;5057471;28;20223;-58
2023/08/14 06:46:59;;;;;;;5.93;5.35;;;;;;;;;;5057991;28;20213;-59
2023/08/14 06:49:25;;;;;;;6.57;6.03;;;;;;;;;;5051370;28;20209;-57
2023/08/14 06:51:53;;;;;;;6.32;5.88;;;;;;;;;;5054209;28;20216;-58
2023/08/14 06:54:19;;;;;;;6.72;6.10;;;;;;;;;;5049094;28;20582;-58
2023/08/14 06:56:45;;;;;;;6.55;5.90;;;;;;;;;;5048283;28;20217;-58
2023/08/14 06:59:12;;;;;;;6.93;6.07;;;;;;;;;;5047668;28;20224;-58
2023/08/14 07:01:38;;;;;;;7.32;6.63;;;;;;;;;;5056901;28;20213;-58
2023/08/14 07:04:05;;;;;;;7.38;6.63;;;;;;;;;;5056303;28;20450;-59
2023/08/14 07:06:31;;;;;;;6.80;6.22;;;;;;;;;;5055433;28;20274;-59
2023/08/14 07:08:58;;;;;;;9.82;6.63;;;;;;;;;;5056637;28;20213;-59
2023/08/14 07:11:25;;;;;;;6.88;5.60;;;;;;;;;;5050692;28;20221;-59
2023/08/14 07:13:51;;;;;;;6.60;6.00;;;;;;;;;;5050159;28;20209;-59
2023/08/14 07:16:17;;;;;;;7.30;5.00;;;;;;;;;;5057468;28;20523;-59
2023/08/14 07:18:44;;;;;;;6.25;5.10;;;;;;;;;;5057426;28;20220;-59
2023/08/14 07:21:10;;;;;;;5.38;4.97;;;;;;;;;;5048825;28;20213;-58
2023/08/14 07:23:37;;;;;;;5.20;4.63;;;;;;;;;;5048729;28;20212;-59
2023/08/14 07:26:11;;;;;;;5.32;4.82;;;;;;;;;;5056589;28;20209;-59
2023/08/14 07:28:37;;;;;;;7.82;5.55;;;;;;;;;;5057602;28;20220;-59
2023/08/14 07:31:04;;;;;;;6.05;5.55;;;;;;;;;;5051775;28;20213;-59
2023/08/14 07:33:30;;;;;;;6.63;5.60;;;;;;;;;;5055492;28;20583;-59
2023/08/14 07:35:57;;;;;;;9.30;5.53;;;;;;;;;;5054934;28;20228;-60
2023/08/14 07:38:25;;;;;;;5.93;5.30;;;;;;;;;;5049011;28;20204;-59
2023/08/14 07:40:51;;;;;;;6.88;5.10;;;;;;;;;;5056520;28;20474;-58
2023/08/14 07:43:19;;;;;;;5.78;4.85;;;;;;;;;;5052206;28;20214;-58
2023/08/14 07:45:45;;;;;;;5.57;5.18;;;;;;;;;;5056564;28;20211;-59
2023/08/14 07:48:12;;;;;;;5.70;5.07;;;;;;;;;;5057100;28;20435;-59
2023/08/14 07:50:38;;;;;;;5.90;5.30;;;;;;;;;;5056702;28;20209;-59
2023/08/14 07:53:04;;;;;;;5.43;4.88;;;;;;;;;;5057059;28;20208;-59
2023/08/14 07:55:30;;;;;;;6.55;4.60;;;;;;;;;;5055794;28;20209;-59
2023/08/14 07:57:57;;;;;;;5.22;4.82;;;;;;;;;;5056425;28;20439;-59
2023/08/14 08:00:25;;;;;;;6.88;4.90;;;;;;;;;;5051432;28;20213;-59
2023/08/14 08:02:52;;;;;;;7.38;5.00;;;;;;;;;;5056521;28;20318;-59
2023/08/14 08:05:18;;;;;;;9.05;5.13;;;;;;;;;;5051013;28;20392;-59
2023/08/14 08:07:44;;;;;;;6.72;5.10;;;;;;;;;;5041599;28;20504;-59
2023/08/14 08:10:11;;;;;;;5.70;4.78;;;;;;;;;;5056161;28;20546;-58
2023/08/14 08:12:37;;;;;;;5.78;4.18;;;;;;;;;;5051872;28;20395;-59
2023/08/14 08:15:04;;;;;;;4.72;4.32;;;;;;;;;;5046218;28;20540;-59
2023/08/14 08:17:31;;;;;;;4.47;4.07;;;;;;;;;;5048926;28;20209;-58
2023/08/14 08:19:57;;;;;;;8.23;4.60;;;;;;;;;;5056084;28;20523;-59
2023/08/14 08:22:24;;;;;;;5.95;4.30;;;;;;;;;;5051831;28;20217;-59
2023/08/14 08:24:50;;;;;;;4.55;4.18;;;;;;;;;;5045154;28;20211;-59
2023/08/14 08:27:16;;;;;;;4.45;4.05;;;;;;;;;;5046440;28;20555;-59
2023/08/14 08:29:43;;;;;;;4.75;3.60;;;;;;;;;;5047949;28;20275;-58
2023/08/14 08:32:09;;;;;;;4.18;3.70;;;;;;;;;;5055220;28;20238;-58
2023/08/14 08:34:36;;;;;;;5.20;3.60;;;;;;;;;;5048777;28;20229;-59
2023/08/14 08:37:03;;;;;;;3.85;3.30;;;;;;;;;;5047189;28;20411;-58
2023/08/14 08:39:29;;;;;;;4.05;3.65;;;;;;;;;;5052254;28;20223;-59
2023/08/14 08:41:57;;;;;;;5.95;3.63;;;;;;;;;;5056348;28;20216;-59
2023/08/14 08:44:24;;;;;;;8.02;3.20;;;;;;;;;;5056007;28;20516;-59
2023/08/14 08:46:52;;;;;;;3.50;3.25;;;;;;;;;;5054650;28;20208;-59
2023/08/14 08:49:18;;;;;;;4.18;3.20;;;;;;;;;;5055953;28;20208;-59
2023/08/14 08:51:46;;;;;;;7.32;3.50;;;;;;;;;;5048065;28;20209;-59
2023/08/14 08:54:14;;;;;;;3.00;2.80;;;;;;;;;;5055621;28;20218;-59
2023/08/14 08:56:41;;;;;;;5.43;2.83;;;;;;;;;;5047630;28;20242;-59
2023/08/14 08:59:08;;;;;;;3.30;2.97;;;;;;;;;;5045467;28;20220;-59
2023/08/14 09:01:35;;;;;;;4.70;2.63;;;;;;;;;;5043478;28;20394;-59
2023/08/14 09:04:01;;;;;;;4.57;2.88;;;;;;;;;;5055726;28;20247;-58
2023/08/14 09:06:27;;;;;;;2.80;2.60;;;;;;;;;;5049255;28;20205;-60
2023/08/14 09:08:55;;;;;;;5.45;3.15;;;;;;;;;;5040131;28;20402;-59
2023/08/14 09:11:21;;;;;;;4.97;2.83;;;;;;;;;;5051453;28;20208;-59
2023/08/14 09:13:47;;;;;;;3.33;2.97;;;;;;;;;;5058174;28;20208;-58
2023/08/14 09:16:14;;;;;;;5.30;2.97;;;;;;;;;;5054066;28;20424;-60
2023/08/14 09:18:42;;;;;;;3.15;2.67;;;;;;;;;;5059590;28;20208;-60
2023/08/14 09:21:08;;;;;;;4.75;2.78;;;;;;;;;;5048317;28;20213;-60
2023/08/14 09:23:35;;;;;;;3.53;2.72;;;;;;;;;;5056579;28;20516;-59
2023/08/14 09:26:03;;;;;;;7.63;2.40;;;;;;;;;;5049222;28;20509;-59
2023/08/14 09:28:29;;;;;;;3.08;2.38;;;;;;;;;;5053215;28;20255;-59
2023/08/14 09:31:05;;;;;;;5.75;2.30;;;;;;;;;;5048551;28;20419;-59
2023/08/14 09:33:32;;;;;;;2.53;2.22;;;;;;;;;;5053828;28;20208;-60
2023/08/14 09:35:59;;;;;;;2.47;2.20;;;;;;;;;;5058974;28;20476;-60
2023/08/14 09:38:25;;;;;;;2.58;2.35;;;;;;;;;;5058950;28;20208;-59
2023/08/14 09:40:55;;;;;;;4.57;2.20;;;;;;;;;;5056037;28;20409;-59
2023/08/14 09:43:23;;;;;;;3.33;2.72;;;;;;;;;;5054938;28;20208;-59
2023/08/14 09:45:50;;;;;;;4.15;2.28;;;;;;;;;;5059262;28;20554;-59
2023/08/14 09:48:16;;;;;;;2.80;2.33;;;;;;;;;;5058409;28;20283;-60
2023/08/14 09:50:48;;;;;;;1.98;1.88;;;;;;;;;;5059315;28;20201;-59
2023/08/14 09:53:14;;;;;;;2.30;2.10;;;;;;;;;;5058599;28;20217;-59
2023/08/14 09:55:40;;;;;;;3.78;2.45;;;;;;;;;;5047845;28;20450;-59
2023/08/14 09:58:07;;;;;;;3.47;2.08;;;;;;;;;;5044162;28;20213;-59
2023/08/14 10:00:36;;;;;;;4.50;2.22;;;;;;;;;;5050737;28;20209;-60
2023/08/14 10:03:03;;;;;;;4.63;2.22;;;;;;;;;;5049643;28;20418;-59
2023/08/14 10:05:30;;;;;;;3.78;2.40;;;;;;;;;;5052707;28;20400;-60
2023/08/14 10:07:58;;;;;;;3.00;2.70;;;;;;;;;;5041922;28;20213;-59
2023/08/14 10:10:25;;;;;;;3.60;2.17;;;;;;;;;;5058244;28;20247;-59
2023/08/14 10:12:54;;;;;;;4.93;2.13;;;;;;;;;;5047730;28;20209;-60
2023/08/14 10:15:25;;;;;;;2.42;2.20;;;;;;;;;;5057915;28;20224;-59
2023/08/14 10:17:56;;;;;;;3.65;2.28;;;;;;;;;;5041712;28;20209;-59
2023/08/14 10:20:24;;;;;;;2.30;2.17;;;;;;;;;;5057447;28;20208;-60
2023/08/14 10:22:52;;;;;;;2.10;2.00;;;;;;;;;;5051161;28;20216;-60
2023/08/14 10:25:19;;;;;;;2.70;1.80;;;;;;;;;;5042306;28;20336;-59
2023/08/14 10:27:46;;;;;;;2.30;2.20;;;;;;;;;;5053760;28;20264;-59
2023/08/14 10:30:12;;;;;;;2.13;2.03;;;;;;;;;;5047215;28;20216;-59
2023/08/14 10:32:39;;;;;;;3.38;2.03;;;;;;;;;;5054565;28;20210;-59
2023/08/14 10:35:08;;;;;;;6.85;2.28;;;;;;;;;;5055058;28;20550;-59
2023/08/14 10:37:41;;;;;;;4.35;2.30;;;;;;;;;;5055068;28;20894;-59
2023/08/14 10:40:14;;;;;;;5.65;3.00;;;;;;;;;;5055707;28;20221;-59
2023/08/14 10:42:41;;;;;;;4.90;2.17;;;;;;;;;;5056931;28;20215;-59
2023/08/14 10:45:08;;;;;;;3.88;2.63;;;;;;;;;;5054244;28;20212;-59
2023/08/14 10:47:37;;;;;;;2.50;2.25;;;;;;;;;;5049243;28;20219;-59
2023/08/14 10:50:12;;;;;;;3.00;2.58;;;;;;;;;;5058273;28;20219;-59
2023/08/14 10:52:38;;;;;;;3.15;2.22;;;;;;;;;;5057412;28;20211;-59
2023/08/14 10:55:14;;;;;;;3.03;1.98;;;;;;;;;;5057991;28;20231;-59
2023/08/14 10:57:40;;;;;;;7.70;2.67;;;;;;;;;;5051587;28;20242;-59
2023/08/14 11:00:18;;;;;;;2.15;2.05;;;;;;;;;;5044873;28;20533;-58
2023/08/14 11:02:49;;;;;;;2.20;2.10;;;;;;;;;;5045731;28;20215;-59
2023/08/14 11:05:17;;;;;;;5.18;2.40;;;;;;;;;;5052616;28;20208;-59
2023/08/14 11:07:56;;;;;;;3.13;2.55;;;;;;;;;;5042968;28;20229;-59
2023/08/14 11:10:24;;;;;;;2.53;2.10;;;;;;;;;;5055364;28;20212;-59
2023/08/14 11:12:50;;;;;;;2.15;2.05;;;;;;;;;;5045261;28;20214;-59
2023/08/14 11:15:17;;;;;;;2.53;2.33;;;;;;;;;;5044200;28;20221;-58
2023/08/14 11:17:43;;;;;;;2.80;2.60;;;;;;;;;;5056149;28;20208;-59
2023/08/14 11:20:10;;;;;;;2.40;2.28;;;;;;;;;;5043741;28;20218;-59
2023/08/14 11:22:38;;;;;;;2.58;2.40;;;;;;;;;;5053259;28;20209;-59
2023/08/14 11:25:05;;;;;;;2.50;2.30;;;;;;;;;;5056974;28;20235;-59
2023/08/14 11:27:31;;;;;;;4.70;2.80;;;;;;;;;;5050636;28;20228;-59
2023/08/14 11:29:57;;;;;;;2.63;2.40;;;;;;;;;;5049586;28;20220;-59
2023/08/14 11:32:23;;;;;;;4.82;2.35;;;;;;;;;;5046274;28;20217;-59
2023/08/14 11:34:50;;;;;;;2.60;2.40;;;;;;;;;;5056951;28;20616;-60
2023/08/14 11:37:17;;;;;;;2.40;2.30;;;;;;;;;;5055937;28;20239;-59
2023/08/14 11:39:44;;;;;;;3.40;2.50;;;;;;;;;;5056950;28;20209;-59
2023/08/14 11:42:11;;;;;;;2.88;2.60;;;;;;;;;;5049935;28;20219;-59
2023/08/14 11:44:37;;;;;;;5.97;2.40;;;;;;;;;;5045673;28;20445;-59
2023/08/14 11:47:06;;;;;;;4.10;2.50;;;;;;;;;;5056532;28;20232;-59
2023/08/14 11:49:34;;;;;;;3.67;2.60;;;;;;;;;;5046578;28;20292;-60
2023/08/14 11:52:02;;;;;;;2.75;2.53;;;;;;;;;;5050289;28;20213;-59
2023/08/14 11:54:28;;;;;;;2.60;2.50;;;;;;;;;;5049996;28;20288;-59
2023/08/14 11:56:56;;;;;;;4.20;2.67;;;;;;;;;;5042152;28;20593;-59
2023/08/14 11:59:22;;;;;;;4.03;2.42;;;;;;;;;;5041424;28;20220;-59
2023/08/14 12:01:48;;;;;;;3.03;2.55;;;;;;;;;;5045743;28;20213;-59
2023/08/14 12:04:15;;;;;;;4.25;2.35;;;;;;;;;;5045799;28;20208;-59
2023/08/14 12:06:41;;;;;;;2.40;2.30;;;;;;;;;;5037481;28;20205;-60
2023/08/14 12:09:08;;;;;;;4.13;2.30;;;;;;;;;;5045773;28;20259;-59
2023/08/14 12:11:34;;;;;;;2.67;2.20;;;;;;;;;;5055957;28;20209;-60
2023/08/14 12:14:05;;;;;;;7.05;2.17;;;;;;;;;;5052298;28;20220;-59
2023/08/14 12:16:31;;;;;;;4.03;2.45;;;;;;;;;;5042314;28;20220;-59
2023/08/14 12:18:58;;;;;;;2.33;2.13;;;;;;;;;;5051589;28;20219;-59
2023/08/14 12:21:26;;;;;;;2.33;2.13;;;;;;;;;;5047246;28;20220;-59
2023/08/14 12:23:54;;;;;;;3.00;2.45;;;;;;;;;;5056231;28;20208;-59
2023/08/14 12:26:20;;;;;;;3.13;2.60;;;;;;;;;;5054867;28;20208;-59
2023/08/14 12:28:47;;;;;;;2.15;2.10;;;;;;;;;;5049569;28;20278;-59
2023/08/14 12:31:14;;;;;;;2.33;2.22;;;;;;;;;;5046928;28;20211;-57
2023/08/14 12:33:41;;;;;;;4.82;2.58;;;;;;;;;;5046614;28;20551;-59
2023/08/14 12:36:10;;;;;;;3.22;2.58;;;;;;;;;;5044667;28;20328;-60
2023/08/14 12:38:36;;;;;;;7.20;2.30;;;;;;;;;;5042708;28;20207;-59
2023/08/14 12:41:02;;;;;;;2.60;2.40;;;;;;;;;;5041215;28;20220;-59
2023/08/14 12:43:29;;;;;;;2.30;2.15;;;;;;;;;;5045526;28;20419;-59
2023/08/14 12:45:55;;;;;;;4.47;2.72;;;;;;;;;;5045885;28;20371;-59
2023/08/14 12:48:22;;;;;;;5.32;2.70;;;;;;;;;;5039126;28;20217;-59
2023/08/14 12:50:49;;;;;;;2.35;2.20;;;;;;;;;;5046175;28;20209;-59
2023/08/14 12:53:17;;;;;;;4.10;2.78;;;;;;;;;;5053437;28;20414;-59
2023/08/14 12:55:44;;;;;;;4.05;2.50;;;;;;;;;;5049258;28;20231;-59
2023/08/14 12:58:10;;;;;;;3.05;2.85;;;;;;;;;;5050186;28;20259;-59
2023/08/14 13:00:37;;;;;;;2.60;2.40;;;;;;;;;;5044843;28;20209;-59
2023/08/14 13:03:03;;;;;;;3.67;2.50;;;;;;;;;;5048517;28;20205;-59
2023/08/14 13:05:31;;;;;;;6.82;2.83;;;;;;;;;;5048603;28;20779;-59
2023/08/14 13:07:57;;;;;;;2.92;2.47;;;;;;;;;;5044885;28;20209;-59
2023/08/14 13:10:23;;;;;;;4.25;2.38;;;;;;;;;;5054119;28;20213;-59
2023/08/14 13:12:50;;;;;;;2.97;2.70;;;;;;;;;;5042277;28;20209;-59
2023/08/14 13:15:16;;;;;;;2.88;2.60;;;;;;;;;;5050514;28;20227;-59
2023/08/14 13:17:43;;;;;;;2.90;2.70;;;;;;;;;;5055261;28;20220;-59
2023/08/14 13:20:10;;;;;;;3.67;3.05;;;;;;;;;;5054284;28;20274;-59
2023/08/14 13:22:37;;;;;;;5.53;2.92;;;;;;;;;;5047299;28;20532;-59
2023/08/14 13:25:04;;;;;;;4.18;2.55;;;;;;;;;;5050482;28;20209;-59
2023/08/14 13:27:30;;;;;;;5.28;3.05;;;;;;;;;;5047903;28;20420;-59
2023/08/14 13:29:56;;;;;;;2.92;2.70;;;;;;;;;;5039337;28;20212;-59
2023/08/14 13:32:23;;;;;;;4.43;2.83;;;;;;;;;;5045136;28;20220;-59
2023/08/14 13:34:49;;;;;;;3.40;3.10;;;;;;;;;;5049127;28;20238;-59
2023/08/14 13:37:15;;;;;;;4.35;2.80;;;;;;;;;;5049328;28;20491;-59
2023/08/14 13:39:43;;;;;;;4.82;2.95;;;;;;;;;;5055347;28;20207;-59
2023/08/14 13:42:10;;;;;;;5.25;3.00;;;;;;;;;;5053324;28;20555;-59
2023/08/14 13:44:36;;;;;;;5.93;3.08;;;;;;;;;;5041816;28;20216;-59
2023/08/14 13:47:02;;;;;;;3.00;2.65;;;;;;;;;;5055390;28;20586;-59
2023/08/14 13:49:28;;;;;;;4.32;2.67;;;;;;;;;;5054460;28;20227;-58
2023/08/14 13:51:55;;;;;;;3.35;3.00;;;;;;;;;;5053105;28;20525;-59
2023/08/14 13:54:21;;;;;;;2.80;2.47;;;;;;;;;;5051053;28;20556;-59
2023/08/14 13:56:49;;;;;;;4.35;2.90;;;;;;;;;;5058923;28;20404;-59
2023/08/14 13:59:15;;;;;;;4.07;2.95;;;;;;;;;;5045990;28;20209;-59
2023/08/14 14:01:41;;;;;;;4.25;2.90;;;;;;;;;;5054210;28;20213;-59
2023/08/14 14:04:07;;;;;;;4.45;2.90;;;;;;;;;;5050549;28;20224;-59
2023/08/14 14:06:34;;;;;;;2.95;2.53;;;;;;;;;;5049610;28;20211;-59
2023/08/14 14:09:00;;;;;;;3.03;2.83;;;;;;;;;;5053337;28;20460;-59
2023/08/14 14:11:26;;;;;;;5.45;2.58;;;;;;;;;;5055231;28;20275;-59
2023/08/14 14:13:54;;;;;;;5.70;2.90;;;;;;;;;;5048943;28;20209;-59
2023/08/14 14:16:21;;;;;;;4.40;2.42;;;;;;;;;;5053401;28;20481;-59
2023/08/14 14:18:47;;;;;;;3.67;3.08;;;;;;;;;;5058002;28;20200;-59
2023/08/14 14:21:14;;;;;;;3.50;2.72;;;;;;;;;;5055605;28;20538;-59
2023/08/14 14:23:40;;;;;;;3.03;2.72;;;;;;;;;;5051322;28;20213;-59
2023/08/14 14:26:06;;;;;;;4.18;2.55;;;;;;;;;;5056242;28;20220;-58
2023/08/14 14:28:33;;;;;;;3.03;2.75;;;;;;;;;;5047019;28;20231;-59
2023/08/14 14:31:01;;;;;;;2.70;2.50;;;;;;;;;;5054398;28;20213;-59
2023/08/14 14:33:27;;;;;;;6.25;3.08;;;;;;;;;;5052346;28;20267;-59
2023/08/14 14:35:54;;;;;;;3.92;2.67;;;;;;;;;;5052835;28;20212;-59
2023/08/14 14:38:20;;;;;;;3.13;2.90;;;;;;;;;;5054733;28;20235;-59
2023/08/14 14:40:46;;;;;;;3.08;2.78;;;;;;;;;;5058406;28;20438;-59